Time;durP1;ratioP1;P1;durP2;ratioP2;P2;SDS_P1;SDS_P2;PMS_P1;PMS_P2;Temp;Humidity;BMP_temperature;BMP_pressure;BME280_temperature;BME280_humidity;BME280_pressure;Samples;Min_cycle;Max_cycle;Signal;HPM_P1;HPM_P2
2023/08/07 00:00:39;;;;;;;2.08;0.30;;;;;;;13.70;100.00;97264.25;2592848;28;20053;-86
2023/08/07 00:02:14;;;;;;;0.17;0.17;;;;;;;13.86;100.00;97263.34;2599844;28;20135;-86
2023/08/07 00:03:30;;;;;;;0.30;0.30;;;;;;;13.94;100.00;97254.97;2603685;28;20561;-85
2023/08/07 00:04:45;;;;;;;0.20;0.20;;;;;;;13.88;100.00;97258.81;2603800;28;20041;-86
2023/08/07 00:06:01;;;;;;;0.28;0.20;;;;;;;13.94;100.00;97257.59;2603593;28;20064;-86
2023/08/07 00:07:18;;;;;;;0.10;0.10;;;;;;;13.76;100.00;97254.31;2603781;28;20041;-86
2023/08/07 00:08:33;;;;;;;1.27;0.17;;;;;;;13.71;100.00;97254.56;2603716;28;20068;-85
2023/08/07 00:09:49;;;;;;;0.60;0.10;;;;;;;13.71;100.00;97246.69;2603597;28;20413;-86
2023/08/07 00:11:08;;;;;;;0.30;0.20;;;;;;;13.45;100.00;97249.06;2603802;28;20520;-86
2023/08/07 00:12:24;;;;;;;0.13;0.10;;;;;;;13.51;100.00;97246.09;2603717;28;20080;-86
2023/08/07 00:13:39;;;;;;;0.40;0.40;;;;;;;13.62;100.00;97242.81;2611689;28;20045;-86
2023/08/07 00:14:55;;;;;;;0.00;0.00;;;;;;;13.59;100.00;97248.28;2616315;28;20041;-84
2023/08/07 00:16:11;;;;;;;0.55;0.10;;;;;;;13.68;100.00;97250.31;2616650;28;20056;-83
2023/08/07 00:17:26;;;;;;;0.65;0.20;;;;;;;13.87;100.00;97251.00;2616297;28;20042;-85
2023/08/07 00:18:42;;;;;;;0.20;0.10;;;;;;;13.61;100.00;97245.53;2616586;28;20030;-83
2023/08/07 00:19:57;;;;;;;0.00;0.00;;;;;;;13.64;100.00;97248.00;2616547;28;20029;-85
2023/08/07 00:21:13;;;;;;;0.45;0.22;;;;;;;13.57;100.00;97247.53;2606045;28;20026;-85
2023/08/07 00:22:29;;;;;;;0.13;0.13;;;;;;;13.73;100.00;97249.22;2610379;28;20041;-86
2023/08/07 00:23:44;;;;;;;0.10;0.10;;;;;;;13.59;100.00;97250.03;2616268;28;20024;-84
2023/08/07 00:25:00;;;;;;;0.10;0.10;;;;;;;13.73;100.00;97244.78;2605648;28;20354;-84
2023/08/07 00:26:15;;;;;;;0.22;0.22;;;;;;;13.76;100.00;97249.03;2610025;28;20049;-85
2023/08/07 00:27:31;;;;;;;0.10;0.10;;;;;;;13.70;100.00;97245.84;2616522;28;20042;-85
2023/08/07 00:28:47;;;;;;;0.20;0.20;;;;;;;13.65;100.00;97242.63;2616750;28;20041;-85
2023/08/07 00:30:02;;;;;;;0.20;0.20;;;;;;;13.90;100.00;97243.78;2616640;28;20029;-85
2023/08/07 00:31:18;;;;;;;0.10;0.10;;;;;;;13.74;100.00;97246.50;2616755;28;20046;-84
2023/08/07 00:32:33;;;;;;;0.10;0.10;;;;;;;13.86;100.00;97238.81;2616607;28;20045;-83
2023/08/07 00:33:51;;;;;;;0.10;0.10;;;;;;;13.54;100.00;97250.31;2605815;28;20029;-86
2023/08/07 00:35:08;;;;;;;0.17;0.10;;;;;;;13.64;100.00;97251.47;2610639;28;20054;-85
2023/08/07 00:36:23;;;;;;;0.20;0.20;;;;;;;13.73;100.00;97247.44;2616676;28;20028;-83
2023/08/07 00:37:39;;;;;;;0.98;0.15;;;;;;;13.93;100.00;97253.28;2616536;28;20072;-85
2023/08/07 00:38:55;;;;;;;0.20;0.20;;;;;;;13.73;100.00;97246.59;2616572;28;20064;-84
2023/08/07 00:40:11;;;;;;;0.10;0.10;;;;;;;13.74;100.00;97246.50;2605917;28;20050;-84
2023/08/07 00:41:26;;;;;;;0.10;0.10;;;;;;;13.65;100.00;97247.88;2610496;28;20030;-85
2023/08/07 00:42:42;;;;;;;0.20;0.20;;;;;;;13.53;100.00;97246.00;2616598;28;20088;-84
2023/08/07 00:43:58;;;;;;;2.55;0.28;;;;;;;13.50;100.00;97254.06;2616450;28;20049;-84
2023/08/07 00:45:13;;;;;;;0.10;0.10;;;;;;;13.62;100.00;97255.97;2616510;28;20029;-84
2023/08/07 00:46:29;;;;;;;0.75;0.10;;;;;;;13.87;100.00;97249.25;2605835;28;20037;-84
2023/08/07 00:47:45;;;;;;;1.08;0.10;;;;;;;13.83;100.00;97250.38;2599254;28;20033;-84
2023/08/07 00:49:02;;;;;;;0.15;0.15;;;;;;;13.80;100.00;97240.00;2607100;28;20037;-86
2023/08/07 00:50:17;;;;;;;0.10;0.10;;;;;;;13.76;100.00;97246.41;2604401;28;20049;-85
2023/08/07 00:51:33;;;;;;;0.40;0.13;;;;;;;14.01;100.00;97242.28;2605597;28;20049;-85
2023/08/07 00:52:49;;;;;;;0.20;0.20;;;;;;;13.88;100.00;97248.28;2595058;28;20046;-85
2023/08/07 00:54:05;;;;;;;0.10;0.10;;;;;;;13.51;100.00;97243.47;2599891;28;20049;-86
2023/08/07 00:55:21;;;;;;;0.10;0.10;;;;;;;13.56;100.00;97248.47;2606558;28;20053;-86
2023/08/07 00:56:36;;;;;;;0.10;0.10;;;;;;;13.65;100.00;97242.63;2606778;28;20053;-86
2023/08/07 00:57:52;;;;;;;0.10;0.10;;;;;;;13.50;100.00;97246.19;2606484;28;20049;-86
2023/08/07 00:59:09;;;;;;;0.20;0.10;;;;;;;13.80;100.00;97242.66;2606055;28;20048;-85
2023/08/07 01:00:28;;;;;;;0.43;0.10;;;;;;;13.60;100.00;97249.97;2606096;28;20140;-86
2023/08/07 01:01:44;;;;;;;0.10;0.10;;;;;;;13.82;100.00;97241.63;2605168;28;20490;-86
2023/08/07 01:03:01;;;;;;;0.10;0.10;;;;;;;13.62;100.00;97240.19;2605462;28;20061;-86
2023/08/07 01:04:16;;;;;;;0.10;0.10;;;;;;;13.50;100.00;97240.91;2605326;28;20046;-85
2023/08/07 01:05:32;;;;;;;0.10;0.10;;;;;;;13.83;100.00;97238.06;2605224;28;20045;-84
2023/08/07 01:06:48;;;;;;;0.13;0.13;;;;;;;13.71;100.00;97246.69;2605590;28;20054;-85
2023/08/07 01:08:04;;;;;;;0.20;0.13;;;;;;;13.92;100.00;97244.53;2605604;28;20493;-85
2023/08/07 01:09:19;;;;;;;0.10;0.10;;;;;;;13.74;100.00;97243.03;2605134;28;20041;-85
2023/08/07 01:11:00;;;;;;;0.10;0.10;;;;;;;13.79;100.00;97243.59;2605588;28;20500;-85
2023/08/07 01:12:21;;;;;;;0.20;0.10;;;;;;;13.96;100.00;97248.66;2605330;28;20037;-85
2023/08/07 01:13:58;;;;;;;0.10;0.10;;;;;;;14.03;100.00;97243.88;2593982;28;20449;-85
2023/08/07 01:15:19;;;;;;;0.10;0.10;;;;;;;14.07;100.00;97245.38;2600942;28;20076;-85
2023/08/07 01:16:47;;;;;;;0.00;0.00;;;;;;;13.71;100.00;97249.31;2604258;28;20113;-86
2023/08/07 01:18:04;;;;;;;0.10;0.10;;;;;;;13.90;100.00;97249.03;2604025;28;20080;-85
2023/08/07 01:19:25;;;;;;;0.10;0.10;;;;;;;14.08;100.00;97247.06;2603673;28;20064;-86
2023/08/07 01:20:40;;;;;;;0.45;0.15;;;;;;;13.94;100.00;97249.72;2603824;28;20092;-85
2023/08/07 01:22:13;;;;;;;1.27;0.10;;;;;;;13.97;100.00;97252.16;2603830;28;20549;-85
2023/08/07 01:23:29;;;;;;;;;;;;;;;14.16;100.00;97253.63;2604394;28;20046;-85
2023/08/07 01:24:47;;;;;;;0.10;0.10;;;;;;;14.22;100.00;97251.47;2593004;28;19928;-85
2023/08/07 01:26:04;;;;;;;0.10;0.10;;;;;;;13.96;100.00;97253.09;2593033;28;20052;-85
2023/08/07 01:27:20;;;;;;;0.57;0.20;;;;;;;13.97;100.00;97249.53;2597568;28;20062;-85
2023/08/07 01:28:46;;;;;;;0.10;0.10;;;;;;;14.02;100.00;97255.34;2604011;28;20053;-85
2023/08/07 01:30:14;;;;;;;0.20;0.20;;;;;;;13.98;100.00;97252.06;2604046;28;20541;-86
2023/08/07 01:31:33;;;;;;;0.15;0.15;;;;;;;13.95;100.00;97249.59;2603859;28;20454;-85
2023/08/07 01:33:06;;;;;;;0.10;0.10;;;;;;;13.77;100.00;97245.47;2603823;28;20046;-85
2023/08/07 01:34:24;;;;;;;0.43;0.10;;;;;;;14.09;100.00;97246.13;2603773;28;20048;-85
2023/08/07 01:35:47;;;;;;;0.10;0.10;;;;;;;13.79;100.00;97252.34;2603739;28;20056;-85
2023/08/07 01:37:03;;;;;;;0.10;0.10;;;;;;;13.84;100.00;97246.81;2603582;28;20069;-85
2023/08/07 01:38:23;;;;;;;0.10;0.10;;;;;;;13.87;100.00;97248.38;2603630;28;20421;-85
2023/08/07 01:39:42;;;;;;;0.10;0.10;;;;;;;13.74;100.00;97253.56;2603739;28;20045;-86
2023/08/07 01:40:58;;;;;;;0.10;0.10;;;;;;;13.72;100.00;97256.25;2603744;28;20050;-85
2023/08/07 01:42:14;;;;;;;0.10;0.10;;;;;;;14.00;100.00;97251.13;2603646;28;20065;-86
2023/08/07 01:43:32;;;;;;;0.20;0.20;;;;;;;14.00;100.00;97259.03;2603684;28;20049;-85
2023/08/07 01:44:47;;;;;;;0.80;0.20;;;;;;;14.04;100.00;97252.63;2603471;28;20045;-86
2023/08/07 01:46:04;;;;;;;0.10;0.10;;;;;;;13.97;100.00;97258.28;2603644;28;20048;-85
2023/08/07 01:47:20;;;;;;;0.55;0.15;;;;;;;14.01;100.00;97264.16;2603496;28;20048;-85
2023/08/07 01:48:36;;;;;;;0.20;0.20;;;;;;;13.91;100.00;97255.16;2603508;28;20056;-85
2023/08/07 01:49:51;;;;;;;0.10;0.10;;;;;;;13.85;100.00;97259.00;2603446;28;20041;-85
2023/08/07 01:51:07;;;;;;;0.05;0.05;;;;;;;13.75;100.00;97256.06;2603547;28;20053;-85
2023/08/07 01:52:23;;;;;;;0.10;0.10;;;;;;;13.84;100.00;97252.06;2603514;28;20441;-85
2023/08/07 01:53:38;;;;;;;0.55;0.20;;;;;;;13.78;100.00;97265.56;2603680;28;20095;-85
2023/08/07 01:54:54;;;;;;;0.20;0.20;;;;;;;13.74;100.00;97262.28;2603439;28;20037;-85
2023/08/07 01:56:09;;;;;;;4.13;0.20;;;;;;;13.77;100.00;97259.47;2603465;28;20108;-85
2023/08/07 01:57:25;;;;;;;0.10;0.10;;;;;;;14.06;100.00;97263.91;2603304;28;20130;-85
2023/08/07 01:58:41;;;;;;;0.10;0.10;;;;;;;13.97;100.00;97263.53;2603268;28;20049;-85
2023/08/07 01:59:56;;;;;;;0.20;0.20;;;;;;;13.74;100.00;97264.06;2603381;28;20041;-85
2023/08/07 02:01:12;;;;;;;0.20;0.20;;;;;;;13.93;100.00;97261.19;2603029;28;20058;-85
2023/08/07 02:02:27;;;;;;;0.10;0.10;;;;;;;13.84;100.00;97263.41;2603062;28;20045;-85
2023/08/07 02:03:43;;;;;;;0.63;0.30;;;;;;;13.90;100.00;97270.09;2603268;28;20069;-85
2023/08/07 02:04:58;;;;;;;0.20;0.10;;;;;;;14.03;100.00;97257.03;2591999;28;20049;-85
2023/08/07 02:06:14;;;;;;;0.10;0.10;;;;;;;13.96;100.00;97268.88;2596455;28;20685;-85
2023/08/07 02:07:31;;;;;;;0.25;0.20;;;;;;;14.08;100.00;97264.63;2603237;28;20041;-85
2023/08/07 02:08:47;;;;;;;0.47;0.10;;;;;;;13.78;100.00;97266.44;2603036;28;20052;-85
2023/08/07 02:10:02;;;;;;;0.20;0.20;;;;;;;14.04;100.00;97264.00;2602949;28;20052;-86
2023/08/07 02:11:18;;;;;;;0.90;0.10;;;;;;;14.00;100.00;97270.38;2603055;28;20395;-86
2023/08/07 02:12:34;;;;;;;0.65;0.20;;;;;;;13.71;100.00;97270.34;2603052;28;20548;-85
2023/08/07 02:13:49;;;;;;;0.30;0.20;;;;;;;14.04;100.00;97269.28;2592051;28;20050;-85
2023/08/07 02:15:05;;;;;;;0.20;0.20;;;;;;;14.04;100.00;97271.03;2596396;28;20399;-85
2023/08/07 02:16:21;;;;;;;0.93;0.40;;;;;;;13.89;100.00;97255.25;2603093;28;20506;-85
2023/08/07 02:17:38;;;;;;;1.50;0.10;;;;;;;13.87;100.00;97257.13;2602700;28;20045;-85
2023/08/07 02:18:54;;;;;;;0.10;0.10;;;;;;;13.83;100.00;97260.91;2602887;28;20555;-85
2023/08/07 02:20:10;;;;;;;0.10;0.10;;;;;;;13.97;100.00;97260.91;2602768;28;20053;-85
2023/08/07 02:21:25;;;;;;;0.52;0.15;;;;;;;13.84;100.00;97263.41;2602605;28;20096;-85
2023/08/07 02:22:41;;;;;;;0.20;0.20;;;;;;;13.96;100.00;97260.97;2602613;28;20045;-85
2023/08/07 02:23:57;;;;;;;0.28;0.10;;;;;;;13.81;100.00;97268.88;2602548;28;20079;-85
2023/08/07 02:25:12;;;;;;;0.10;0.10;;;;;;;13.82;100.00;97265.31;2602443;28;20041;-85
2023/08/07 02:26:28;;;;;;;0.95;0.45;;;;;;;13.89;100.00;97272.81;2602367;28;20076;-85
2023/08/07 02:27:43;;;;;;;0.40;0.22;;;;;;;13.98;100.00;97267.00;2602636;28;20073;-85
2023/08/07 02:29:02;;;;;;;0.10;0.10;;;;;;;13.75;100.00;97274.47;2602606;28;20053;-84
2023/08/07 02:30:17;;;;;;;0.00;0.00;;;;;;;13.48;100.00;97271.72;2602738;28;20053;-85
2023/08/07 02:31:32;;;;;;;0.10;0.10;;;;;;;13.50;100.00;97270.69;2602711;28;20042;-85
2023/08/07 02:32:48;;;;;;;0.08;0.08;;;;;;;13.70;100.00;97277.41;2602658;28;20112;-85
2023/08/07 02:34:04;;;;;;;0.10;0.10;;;;;;;13.72;100.00;97279.94;2602604;28;20401;-85
2023/08/07 02:35:19;;;;;;;2.38;0.30;;;;;;;13.67;100.00;97277.56;2602302;28;20042;-85
2023/08/07 02:36:35;;;;;;;0.10;0.10;;;;;;;13.56;100.00;97272.94;2602900;28;20053;-85
2023/08/07 02:37:50;;;;;;;0.65;0.10;;;;;;;13.72;100.00;97271.22;2602611;28;20049;-85
2023/08/07 02:39:06;;;;;;;2.42;0.08;;;;;;;13.54;100.00;97276.59;2602540;28;20395;-85
2023/08/07 02:40:22;;;;;;;0.63;0.30;;;;;;;13.79;100.00;97278.66;2602739;28;20049;-85
2023/08/07 02:41:37;;;;;;;0.20;0.20;;;;;;;13.88;100.00;97282.50;2602669;28;20045;-85
2023/08/07 02:42:53;;;;;;;0.10;0.10;;;;;;;13.91;100.00;97284.94;2602130;28;20071;-85
2023/08/07 02:44:08;;;;;;;0.00;0.00;;;;;;;13.69;100.00;97285.38;2602393;28;20091;-85
2023/08/07 02:45:24;;;;;;;0.20;0.20;;;;;;;13.97;100.00;97289.00;2602370;28;20041;-85
2023/08/07 02:46:39;;;;;;;0.10;0.10;;;;;;;13.97;100.00;97286.34;2602196;28;20073;-85
2023/08/07 02:47:55;;;;;;;0.15;0.15;;;;;;;13.98;100.00;97288.91;2602261;28;20057;-85
2023/08/07 02:49:11;;;;;;;0.10;0.10;;;;;;;14.07;100.00;97281.38;2602111;28;20390;-85
2023/08/07 02:50:29;;;;;;;0.10;0.10;;;;;;;14.12;100.00;97281.97;2602168;28;20049;-85
2023/08/07 02:51:45;;;;;;;1.00;0.10;;;;;;;14.20;100.00;97287.59;2602219;28;20453;-85
2023/08/07 02:53:01;;;;;;;0.32;0.17;;;;;;;14.09;100.00;97282.97;2602313;28;20056;-85
2023/08/07 02:54:17;;;;;;;0.10;0.10;;;;;;;14.06;100.00;97280.53;2602237;28;20048;-85
2023/08/07 02:55:32;;;;;;;0.20;0.20;;;;;;;13.84;100.00;97289.72;2602417;28;20069;-85
2023/08/07 02:56:51;;;;;;;0.10;0.10;;;;;;;14.01;100.00;97287.03;2602177;28;20077;-85
2023/08/07 02:58:06;;;;;;;0.43;0.35;;;;;;;13.93;100.00;97285.69;2602262;28;20049;-85
2023/08/07 02:59:22;;;;;;;0.10;0.10;;;;;;;13.98;100.00;97294.16;2602251;28;20107;-85
2023/08/07 03:00:37;;;;;;;1.17;0.10;;;;;;;13.99;100.00;97289.75;2602323;28;20045;-85
2023/08/07 03:01:53;;;;;;;0.20;0.20;;;;;;;14.12;100.00;97288.06;2601912;28;20129;-85
2023/08/07 03:03:08;;;;;;;0.90;0.13;;;;;;;14.13;100.00;97286.28;2602194;28;20045;-85
2023/08/07 03:04:24;;;;;;;0.32;0.20;;;;;;;13.93;100.00;97287.50;2602174;28;20045;-86
2023/08/07 03:05:51;;;;;;;0.10;0.10;;;;;;;13.91;100.00;97294.63;2602317;28;20045;-85
2023/08/07 03:07:06;;;;;;;0.10;0.10;;;;;;;13.98;100.00;97290.69;2602070;28;20131;-85
2023/08/07 03:08:22;;;;;;;0.10;0.10;;;;;;;14.02;100.00;97288.72;2602187;28;20042;-86
2023/08/07 03:09:38;;;;;;;0.43;0.10;;;;;;;13.95;100.00;97289.06;2602131;28;20049;-85
2023/08/07 03:10:56;;;;;;;0.10;0.10;;;;;;;13.75;100.00;97284.19;2601883;28;20068;-85
2023/08/07 03:12:11;;;;;;;0.10;0.10;;;;;;;13.85;100.00;97295.84;2601949;28;20160;-85
2023/08/07 03:13:27;;;;;;;0.10;0.10;;;;;;;13.62;100.00;97290.16;2602038;28;20072;-85
2023/08/07 03:14:43;;;;;;;0.10;0.10;;;;;;;13.84;100.00;97291.53;2591097;28;20485;-85
2023/08/07 03:16:06;;;;;;;0.50;0.20;;;;;;;13.69;100.00;97290.63;2595414;28;20552;-85
2023/08/07 03:17:21;;;;;;;0.95;0.13;;;;;;;13.90;100.00;97293.78;2602103;28;20587;-85
2023/08/07 03:18:37;;;;;;;1.23;0.13;;;;;;;14.02;100.00;97289.53;2591209;28;20046;-85
2023/08/07 03:19:52;;;;;;;0.43;0.20;;;;;;;13.67;100.00;97293.34;2595368;28;20068;-86
2023/08/07 03:21:08;;;;;;;0.10;0.10;;;;;;;13.87;100.00;97298.38;2602136;28;20128;-85
2023/08/07 03:22:23;;;;;;;0.10;0.10;;;;;;;13.47;100.00;97293.69;2601944;28;20049;-85
2023/08/07 03:23:39;;;;;;;0.20;0.20;;;;;;;13.60;100.00;97294.66;2601998;28;20049;-85
2023/08/07 03:24:54;;;;;;;1.10;0.20;;;;;;;13.65;100.00;97297.03;2601948;28;20045;-85
2023/08/07 03:26:12;;;;;;;0.68;0.10;;;;;;;13.70;100.00;97298.47;2602000;28;20504;-85
2023/08/07 03:27:28;;;;;;;0.20;0.20;;;;;;;13.64;100.00;97290.91;2602134;28;20049;-85
2023/08/07 03:28:46;;;;;;;0.20;0.20;;;;;;;13.83;100.00;97292.47;2602154;28;20124;-85
2023/08/07 03:30:01;;;;;;;0.20;0.20;;;;;;;13.51;100.00;97298.69;2602093;28;20042;-85
2023/08/07 03:31:17;;;;;;;0.10;0.10;;;;;;;13.57;100.00;97294.84;2602103;28;20112;-85
2023/08/07 03:32:32;;;;;;;0.20;0.20;;;;;;;13.86;100.00;97302.81;2602113;28;20050;-85
2023/08/07 03:33:48;;;;;;;0.77;0.20;;;;;;;13.95;100.00;97299.59;2602023;28;20064;-85
2023/08/07 03:35:04;;;;;;;0.25;0.20;;;;;;;13.92;100.00;97302.41;2602144;28;20052;-85
2023/08/07 03:36:20;;;;;;;0.20;0.20;;;;;;;14.03;100.00;97300.94;2602149;28;20489;-85
2023/08/07 03:37:35;;;;;;;1.10;0.30;;;;;;;13.77;100.00;97303.34;2601937;28;20052;-85
2023/08/07 03:38:51;;;;;;;0.10;0.10;;;;;;;13.65;100.00;97305.75;2601856;28;20045;-85
2023/08/07 03:40:07;;;;;;;0.17;0.17;;;;;;;13.76;100.00;97310.41;2602008;28;20054;-85
2023/08/07 03:41:22;;;;;;;1.75;0.20;;;;;;;13.77;100.00;97304.19;2602004;28;20121;-85
2023/08/07 03:42:38;;;;;;;0.10;0.10;;;;;;;13.80;100.00;97303.16;2601859;28;20104;-85
2023/08/07 03:43:53;;;;;;;0.10;0.10;;;;;;;13.70;100.00;97298.47;2601861;28;20112;-85
2023/08/07 03:45:09;;;;;;;0.20;0.20;;;;;;;13.98;100.00;97306.47;2602047;28;20413;-85
2023/08/07 03:46:25;;;;;;;0.10;0.10;;;;;;;14.02;100.00;97305.34;2601907;28;20047;-85
2023/08/07 03:47:40;;;;;;;0.20;0.20;;;;;;;13.79;100.00;97304.94;2602069;28;20045;-85
2023/08/07 03:48:56;;;;;;;0.30;0.30;;;;;;;13.81;100.00;97307.47;2601852;28;20445;-85
2023/08/07 03:50:12;;;;;;;0.20;0.20;;;;;;;13.83;100.00;97308.25;2601872;28;20049;-85
2023/08/07 03:51:29;;;;;;;0.57;0.20;;;;;;;13.76;100.00;97314.81;2601852;28;20237;-85
2023/08/07 03:52:45;;;;;;;0.38;0.20;;;;;;;14.01;100.00;97311.53;2601976;28;20037;-85
2023/08/07 03:54:01;;;;;;;0.17;0.17;;;;;;;13.93;100.00;97321.69;2601819;28;20174;-85
2023/08/07 03:55:16;;;;;;;0.10;0.10;;;;;;;13.94;100.00;97313.69;2601877;28;20038;-85
2023/08/07 03:56:36;;;;;;;0.10;0.10;;;;;;;14.05;100.00;97322.72;2601951;28;20041;-85
2023/08/07 03:57:51;;;;;;;0.17;0.17;;;;;;;13.76;100.00;97322.69;2601759;28;20503;-85
2023/08/07 03:59:07;;;;;;;0.10;0.10;;;;;;;14.08;100.00;97318.13;2601867;28;20053;-85
2023/08/07 04:00:23;;;;;;;0.10;0.10;;;;;;;13.98;100.00;97320.50;2601930;28;20050;-85
2023/08/07 04:01:38;;;;;;;0.10;0.10;;;;;;;13.92;100.00;97322.63;2601751;28;20054;-85
2023/08/07 04:02:54;;;;;;;1.30;0.15;;;;;;;13.91;100.00;97321.78;2590696;28;20058;-85
2023/08/07 04:04:09;;;;;;;0.10;0.10;;;;;;;13.68;100.00;97317.88;2595264;28;20489;-85
2023/08/07 04:05:25;;;;;;;0.10;0.10;;;;;;;13.61;100.00;97325.28;2601872;28;20053;-84
2023/08/07 04:06:40;;;;;;;0.20;0.20;;;;;;;14.00;100.00;97323.00;2601961;28;20053;-85
2023/08/07 04:07:56;;;;;;;0.10;0.10;;;;;;;14.04;100.00;97321.03;2591091;28;20050;-85
2023/08/07 04:09:11;;;;;;;0.10;0.10;;;;;;;13.80;100.00;97321.56;2595204;28;20560;-85
2023/08/07 04:10:27;;;;;;;0.20;0.20;;;;;;;14.04;100.00;97326.31;2601852;28;20045;-85
2023/08/07 04:11:43;;;;;;;0.25;0.20;;;;;;;14.03;100.00;97329.88;2602000;28;20069;-85
2023/08/07 04:12:58;;;;;;;0.35;0.35;;;;;;;13.96;100.00;97332.84;2601944;28;20050;-85
2023/08/07 04:14:14;;;;;;;0.65;0.20;;;;;;;13.64;100.00;97333.00;2601860;28;20074;-85
2023/08/07 04:15:29;;;;;;;0.10;0.10;;;;;;;13.70;100.00;97334.41;2601802;28;20042;-85
2023/08/07 04:16:45;;;;;;;0.25;0.20;;;;;;;13.88;100.00;97334.25;2601937;28;20045;-85
2023/08/07 04:18:00;;;;;;;0.15;0.15;;;;;;;13.73;100.00;97344.75;2601887;28;20052;-85
2023/08/07 04:19:16;;;;;;;0.95;0.30;;;;;;;13.96;100.00;97346.03;2601734;28;20041;-86
2023/08/07 04:20:32;;;;;;;0.10;0.10;;;;;;;13.67;100.00;97345.13;2601846;28;20080;-86
2023/08/07 04:21:47;;;;;;;0.25;0.25;;;;;;;14.00;100.00;97345.88;2602029;28;20053;-85
2023/08/07 04:23:03;;;;;;;0.30;0.30;;;;;;;13.93;100.00;97340.94;2601752;28;20038;-85
2023/08/07 04:24:18;;;;;;;0.65;0.17;;;;;;;13.90;100.00;97350.78;2592562;28;20054;-85
2023/08/07 04:25:34;;;;;;;1.27;0.10;;;;;;;13.90;100.00;97341.13;2597063;28;20520;-85
2023/08/07 04:26:49;;;;;;;0.17;0.17;;;;;;;13.98;100.00;97341.53;2603671;28;20050;-85
2023/08/07 04:28:05;;;;;;;0.10;0.10;;;;;;;13.96;100.00;97343.38;2603579;28;20049;-85
2023/08/07 04:29:20;;;;;;;0.13;0.13;;;;;;;13.80;100.00;97350.50;2603676;28;20103;-85
2023/08/07 04:30:36;;;;;;;0.20;0.20;;;;;;;13.79;100.00;97346.19;2603629;28;20100;-85
2023/08/07 04:31:52;;;;;;;0.15;0.15;;;;;;;13.99;100.00;97358.16;2603503;28;20046;-85
2023/08/07 04:33:08;;;;;;;0.10;0.10;;;;;;;13.95;100.00;97349.59;2603636;28;20061;-85
2023/08/07 04:34:23;;;;;;;0.20;0.20;;;;;;;13.96;100.00;97348.66;2603631;28;20532;-85
2023/08/07 04:35:39;;;;;;;0.22;0.17;;;;;;;13.86;100.00;97352.78;2603554;28;20045;-85
2023/08/07 04:36:56;;;;;;;0.20;0.20;;;;;;;13.87;100.00;97354.47;2603607;28;20573;-85
2023/08/07 04:38:11;;;;;;;0.20;0.20;;;;;;;13.83;100.00;97347.72;2603674;28;20049;-85
2023/08/07 04:39:27;;;;;;;0.20;0.20;;;;;;;13.73;100.00;97355.28;2603292;28;20041;-85
2023/08/07 04:40:46;;;;;;;0.22;0.20;;;;;;;13.66;100.00;97351.31;2603658;28;20486;-85
2023/08/07 04:42:02;;;;;;;0.20;0.10;;;;;;;13.64;100.00;97354.03;2603487;28;20053;-85
2023/08/07 04:43:21;;;;;;;0.20;0.20;;;;;;;13.88;100.00;97348.28;2603334;28;20049;-85
2023/08/07 04:44:37;;;;;;;0.43;0.20;;;;;;;13.83;100.00;97351.19;2603552;28;20073;-85
2023/08/07 04:45:52;;;;;;;0.55;0.20;;;;;;;13.81;100.00;97363.56;2603442;28;20468;-85
2023/08/07 04:47:08;;;;;;;0.28;0.20;;;;;;;13.73;100.00;97360.53;2603226;28;20053;-85
2023/08/07 04:48:25;;;;;;;0.20;0.20;;;;;;;13.69;100.00;97362.53;2603463;28;20469;-85
2023/08/07 04:49:40;;;;;;;0.95;0.15;;;;;;;13.68;100.00;97363.44;2603351;28;20060;-85
2023/08/07 04:50:57;;;;;;;0.17;0.17;;;;;;;13.71;100.00;97359.78;2603320;28;20425;-86
2023/08/07 04:52:13;;;;;;;0.10;0.10;;;;;;;13.74;100.00;97358.75;2603647;28;20056;-85
2023/08/07 04:53:28;;;;;;;0.10;0.10;;;;;;;13.79;100.00;97361.97;2603455;28;20061;-85
2023/08/07 04:54:44;;;;;;;0.15;0.15;;;;;;;13.56;100.00;97362.38;2603266;28;20054;-86
2023/08/07 04:56:00;;;;;;;0.17;0.17;;;;;;;13.95;100.00;97360.13;2603467;28;20046;-86
2023/08/07 04:57:15;;;;;;;0.10;0.10;;;;;;;13.86;100.00;97358.06;2603328;28;20049;-86
2023/08/07 04:58:31;;;;;;;0.80;0.20;;;;;;;13.87;100.00;97359.75;2603160;28;20681;-86
2023/08/07 04:59:46;;;;;;;0.10;0.10;;;;;;;13.61;100.00;97362.09;2603380;28;20489;-85
2023/08/07 05:01:02;;;;;;;0.10;0.10;;;;;;;13.58;100.00;97358.78;2603207;28;20176;-86
2023/08/07 05:02:17;;;;;;;0.13;0.13;;;;;;;13.59;100.00;97361.34;2603373;28;20045;-86
2023/08/07 05:03:33;;;;;;;0.13;0.13;;;;;;;13.66;100.00;97364.47;2603228;28;20046;-85
2023/08/07 05:04:49;;;;;;;0.43;0.30;;;;;;;13.80;100.00;97366.28;2603259;28;20073;-86
2023/08/07 05:06:05;;;;;;;0.22;0.22;;;;;;;13.89;100.00;97371.00;2603207;28;20532;-85
2023/08/07 05:07:21;;;;;;;0.40;0.25;;;;;;;14.06;100.00;97371.78;2603249;28;20046;-85
2023/08/07 05:08:36;;;;;;;0.20;0.20;;;;;;;14.15;100.00;97373.88;2603346;28;20390;-85
2023/08/07 05:09:53;;;;;;;1.98;0.30;;;;;;;13.97;100.00;97368.78;2603310;28;20065;-85
2023/08/07 05:11:08;;;;;;;0.20;0.20;;;;;;;14.13;100.00;97367.88;2603122;28;20128;-85
2023/08/07 05:12:24;;;;;;;0.10;0.10;;;;;;;14.14;100.00;97377.47;2603352;28;20093;-85
2023/08/07 05:13:39;;;;;;;1.00;0.22;;;;;;;14.19;100.00;97378.03;2603197;28;20052;-85
2023/08/07 05:14:55;;;;;;;0.22;0.20;;;;;;;14.14;100.00;97377.47;2603143;28;20191;-85
2023/08/07 05:16:11;;;;;;;0.32;0.28;;;;;;;13.92;100.00;97381.34;2603159;28;20038;-86
2023/08/07 05:17:26;;;;;;;0.52;0.30;;;;;;;13.87;100.00;97379.94;2603127;28;20069;-85
2023/08/07 05:18:42;;;;;;;0.52;0.20;;;;;;;13.95;100.00;97375.91;2603079;28;20061;-85
2023/08/07 05:19:58;;;;;;;1.25;0.40;;;;;;;13.94;100.00;97378.66;2602910;28;20085;-85
2023/08/07 05:21:13;;;;;;;0.20;0.20;;;;;;;13.96;100.00;97372.34;2603233;28;20042;-85
2023/08/07 05:22:29;;;;;;;0.22;0.22;;;;;;;13.93;100.00;97383.03;2602967;28;20045;-85
2023/08/07 05:23:44;;;;;;;0.68;0.20;;;;;;;14.05;100.00;97370.09;2603041;28;20091;-84
2023/08/07 05:25:00;;;;;;;0.20;0.20;;;;;;;14.02;100.00;97378.19;2602949;28;20065;-84
2023/08/07 05:26:16;;;;;;;0.30;0.30;;;;;;;14.17;100.00;97382.53;2603143;28;20041;-84
2023/08/07 05:27:32;;;;;;;0.25;0.25;;;;;;;14.07;100.00;97376.13;2602967;28;20041;-84
2023/08/07 05:28:48;;;;;;;0.75;0.30;;;;;;;14.10;100.00;97389.94;2603123;28;20214;-84
2023/08/07 05:30:05;;;;;;;1.10;0.20;;;;;;;14.01;100.00;97387.84;2603021;28;20479;-85
2023/08/07 05:31:21;;;;;;;0.30;0.30;;;;;;;13.98;100.00;97393.31;2602978;28;20048;-85
2023/08/07 05:32:39;;;;;;;0.22;0.22;;;;;;;13.96;100.00;97392.56;2603013;28;20714;-85
2023/08/07 05:33:55;;;;;;;0.30;0.30;;;;;;;14.11;100.00;97396.91;2602855;28;20430;-85
2023/08/07 05:35:11;;;;;;;0.30;0.30;;;;;;;14.18;100.00;97391.25;2602823;28;20071;-85
2023/08/07 05:36:26;;;;;;;0.38;0.30;;;;;;;14.18;100.00;97392.13;2602963;28;20049;-85
2023/08/07 05:37:42;;;;;;;0.20;0.20;;;;;;;14.22;100.00;97398.06;2603067;28;20053;-85
2023/08/07 05:38:57;;;;;;;0.25;0.25;;;;;;;14.23;100.00;97397.94;2603035;28;20045;-85
2023/08/07 05:40:13;;;;;;;1.38;0.20;;;;;;;14.05;100.00;97401.69;2602856;28;20042;-85
2023/08/07 05:41:29;;;;;;;0.45;0.20;;;;;;;14.01;100.00;97400.19;2603046;28;20409;-85
2023/08/07 05:42:44;;;;;;;0.30;0.28;;;;;;;14.01;100.00;97408.06;2602945;28;20045;-85
2023/08/07 05:44:00;;;;;;;0.90;0.40;;;;;;;14.09;100.00;97406.69;2602650;28;20046;-85
2023/08/07 05:45:15;;;;;;;0.10;0.10;;;;;;;13.96;100.00;97406.53;2602795;28;20525;-84
2023/08/07 05:46:31;;;;;;;0.20;0.20;;;;;;;14.25;100.00;97409.25;2602821;28;20049;-85
2023/08/07 05:47:46;;;;;;;0.30;0.30;;;;;;;14.22;100.00;97404.16;2591753;28;20088;-84
2023/08/07 05:49:02;;;;;;;0.20;0.20;;;;;;;14.10;100.00;97413.66;2596169;28;20486;-84
2023/08/07 05:50:18;;;;;;;0.20;0.20;;;;;;;14.21;100.00;97423.53;2602871;28;20065;-84
2023/08/07 05:51:33;;;;;;;0.15;0.15;;;;;;;14.04;100.00;97424.53;2602816;28;20391;-84
2023/08/07 05:52:48;;;;;;;0.20;0.20;;;;;;;14.15;100.00;97420.41;2602621;28;20127;-85
2023/08/07 05:54:04;;;;;;;0.17;0.17;;;;;;;14.01;100.00;97421.25;2602923;28;20061;-84
2023/08/07 05:55:20;;;;;;;0.32;0.20;;;;;;;14.03;100.00;97420.19;2602851;28;20068;-85